Time;durP1;ratioP1;P1;durP2;ratioP2;P2;SDS_P1;SDS_P2;PMS_P1;PMS_P2;Temp;Humidity;BMP_temperature;BMP_pressure;BME280_temperature;BME280_humidity;BME280_pressure;Samples;Min_cycle;Max_cycle;Signal;HPM_P1;HPM_P2
2022/12/05 00:00:55;;;;;;;2.80;2.60;;;16.60;66.10;;;;;;4989700;28;20049;-38
2022/12/05 00:03:21;;;;;;;2.25;2.15;;;16.50;66.10;;;;;;4989088;28;20043;-30
2022/12/05 00:05:47;;;;;;;2.92;2.72;;;16.50;66.00;;;;;;4987797;28;20058;-34
2022/12/05 00:08:12;;;;;;;2.90;2.70;;;16.60;66.10;;;;;;4983703;28;20039;-33
2022/12/05 00:10:38;;;;;;;3.08;2.85;;;16.50;65.90;;;;;;4987660;28;20499;-35
2022/12/05 00:13:04;;;;;;;2.90;2.70;;;16.50;66.90;;;;;;4989236;28;20050;-31
2022/12/05 00:15:29;;;;;;;2.70;2.60;;;16.50;65.90;;;;;;4988662;28;20484;-33
2022/12/05 00:17:55;;;;;;;2.63;2.53;;;16.50;66.10;;;;;;4988380;28;20038;-30
2022/12/05 00:20:21;;;;;;;2.50;2.40;;;16.60;65.80;;;;;;4989771;28;20026;-32
2022/12/05 00:22:46;;;;;;;2.83;2.63;;;16.60;65.80;;;;;;4989436;28;20583;-33
2022/12/05 00:25:12;;;;;;;3.05;2.85;;;16.50;65.60;;;;;;4988265;28;20381;-35
2022/12/05 00:27:37;;;;;;;3.35;3.15;;;16.50;65.80;;;;;;4986042;28;20042;-31
2022/12/05 00:30:05;;;;;;;2.75;2.55;;;16.50;65.80;;;;;;4988583;28;20046;-32
2022/12/05 00:32:31;;;;;;;3.00;2.80;;;16.50;65.70;;;;;;4986894;28;20046;-31
2022/12/05 00:34:56;;;;;;;3.58;3.38;;;16.50;65.80;;;;;;4987369;28;20046;-31
2022/12/05 00:37:22;;;;;;;3.80;3.50;;;16.50;65.90;;;;;;4985211;28;20042;-33
2022/12/05 00:39:48;;;;;;;3.17;2.97;;;16.40;65.80;;;;;;4989009;28;20083;-30
2022/12/05 00:42:13;;;;;;;3.15;2.95;;;16.40;65.70;;;;;;4987913;28;20053;-30
2022/12/05 00:44:39;;;;;;;3.70;3.40;;;16.50;65.80;;;;;;4989196;28;20050;-32
2022/12/05 00:47:05;;;;;;;3.30;3.10;;;16.40;65.80;;;;;;4985732;28;20516;-44
2022/12/05 00:49:30;;;;;;;3.38;3.17;;;16.40;65.80;;;;;;4986807;28;20058;-32
2022/12/05 00:51:56;;;;;;;3.40;3.20;;;16.40;65.80;;;;;;4988798;28;20042;-35
2022/12/05 00:54:21;;;;;;;3.17;2.97;;;16.40;66.20;;;;;;4988854;28;20043;-34
2022/12/05 00:56:47;;;;;;;2.95;2.75;;;16.40;65.90;;;;;;4987594;28;20066;-36
2022/12/05 00:59:15;;;;;;;3.33;3.10;;;16.40;65.90;;;;;;4988105;28;20069;-37
2022/12/05 01:01:41;;;;;;;3.40;3.20;;;16.40;65.90;;;;;;4983707;28;20412;-31
2022/12/05 01:04:09;;;;;;;3.05;2.85;;;16.40;65.70;;;;;;4990189;28;20096;-32
2022/12/05 01:06:35;;;;;;;3.35;3.15;;;16.40;65.70;;;;;;4987302;28;20128;-32
2022/12/05 01:09:01;;;;;;;2.97;2.78;;;16.40;65.90;;;;;;4985424;28;20511;-30
2022/12/05 01:11:26;;;;;;;3.25;3.05;;;16.40;65.70;;;;;;4984287;28;20049;-31
2022/12/05 01:13:52;;;;;;;3.42;3.15;;;16.40;65.80;;;;;;4982073;28;20585;-31
2022/12/05 01:16:38;;;;;;;3.38;3.17;;;16.40;65.80;;;;;;4987426;28;20104;-30
2022/12/05 01:19:06;;;;;;;3.70;2.90;;;16.30;65.90;;;;;;4976806;28;20105;-35
2022/12/05 01:21:32;;;;;;;3.40;3.20;;;16.40;65.70;;;;;;4981198;28;20137;-33
2022/12/05 01:23:58;;;;;;;3.20;2.90;;;16.50;65.80;;;;;;4981213;28;20161;-33
2022/12/05 01:26:23;;;;;;;3.30;3.10;;;16.50;65.80;;;;;;4982395;28;20511;-35
2022/12/05 01:28:49;;;;;;;3.22;2.92;;;16.40;65.40;;;;;;4987914;28;20133;-34
2022/12/05 01:31:24;;;;;;;3.17;2.97;;;16.40;65.70;;;;;;4981623;28;20092;-30
2022/12/05 01:33:50;;;;;;;3.40;3.20;;;16.30;65.70;;;;;;4979675;28;20050;-30
2022/12/05 01:36:16;;;;;;;3.42;3.13;;;16.40;65.90;;;;;;4985006;28;20053;-32
2022/12/05 01:38:42;;;;;;;2.90;2.70;;;16.40;65.70;;;;;;4986747;28;20042;-31
2022/12/05 01:41:10;;;;;;;3.20;3.00;;;16.40;65.60;;;;;;4987680;28;20038;-31
2022/12/05 01:43:56;;;;;;;2.95;2.75;;;16.40;65.50;;;;;;4984097;28;20634;-33
2022/12/05 01:46:22;;;;;;;3.17;2.97;;;16.40;65.60;;;;;;4979875;28;20128;-32
2022/12/05 01:48:48;;;;;;;3.22;2.97;;;16.40;65.60;;;;;;4980001;28;20050;-34
2022/12/05 01:51:13;;;;;;;3.35;3.05;;;16.30;65.80;;;;;;4983670;28;20593;-29
2022/12/05 01:53:39;;;;;;;3.83;3.40;;;16.40;65.70;;;;;;4980188;28;20045;-30
2022/12/05 01:56:04;;;;;;;3.33;3.13;;;16.30;65.70;;;;;;4983732;28;20050;-31
2022/12/05 01:58:37;;;;;;;3.50;3.20;;;16.30;65.60;;;;;;4984220;28;20042;-36
2022/12/05 02:01:02;;;;;;;3.30;3.10;;;16.40;65.60;;;;;;4984395;28;20062;-32
2022/12/05 02:03:28;;;;;;;3.83;3.53;;;16.30;65.50;;;;;;4983745;28;20042;-32
2022/12/05 02:05:55;;;;;;;3.25;2.95;;;16.30;65.60;;;;;;4983821;28;20077;-32
2022/12/05 02:08:21;;;;;;;3.58;3.38;;;16.30;65.80;;;;;;4994177;28;20069;-32
2022/12/05 02:10:51;;;;;;;3.60;3.30;;;16.30;65.50;;;;;;4983046;28;20419;-33
2022/12/05 02:14:01;;;;;;;3.67;3.47;;;16.30;65.60;;;;;;4982450;28;20076;-31
2022/12/05 02:17:01;;;;;;;3.40;3.20;;;16.30;65.60;;;;;;4961942;28;20526;-39
2022/12/05 02:19:48;;;;;;;3.20;3.00;;;16.30;65.70;;;;;;4960164;28;20118;-35
2022/12/05 02:22:29;;;;;;;3.28;3.08;;;16.30;65.60;;;;;;4960276;28;20058;-32
2022/12/05 02:25:18;;;;;;;3.65;3.45;;;16.30;65.70;;;;;;4956030;28;20039;-32
2022/12/05 02:27:52;;;;;;;3.70;3.50;;;16.30;65.70;;;;;;4971031;28;20413;-31
2022/12/05 02:30:18;;;;;;;3.58;3.28;;;16.30;65.60;;;;;;4961746;28;20085;-32
2022/12/05 02:33:03;;;;;;;3.50;3.25;;;16.30;65.60;;;;;;4974011;28;20062;-31
2022/12/05 02:35:38;;;;;;;3.33;3.03;;;16.30;65.60;;;;;;4960879;28;20507;-36
2022/12/05 02:38:27;;;;;;;3.85;3.55;;;16.30;65.50;;;;;;4962284;28;20042;-31
2022/12/05 02:41:14;;;;;;;3.33;3.13;;;16.30;65.60;;;;;;4962219;28;20121;-33
2022/12/05 02:43:51;;;;;;;3.85;3.55;;;16.30;65.60;;;;;;4961489;28;20034;-31
2022/12/05 02:46:22;;;;;;;3.63;3.33;;;16.30;65.40;;;;;;4978153;28;20039;-37
2022/12/05 02:48:47;;;;;;;3.65;3.35;;;16.30;65.50;;;;;;4982689;28;20622;-32
2022/12/05 02:51:15;;;;;;;3.95;3.65;;;16.30;65.30;;;;;;4982584;28;20117;-34
2022/12/05 02:53:41;;;;;;;3.80;3.50;;;16.30;65.50;;;;;;4981388;28;20078;-31
2022/12/05 02:56:07;;;;;;;3.70;3.40;;;16.30;66.10;;;;;;4983570;28;20135;-30
2022/12/05 02:58:38;;;;;;;3.95;3.65;;;16.30;65.30;;;;;;4982104;28;20142;-32
2022/12/05 03:01:03;;;;;;;3.60;3.30;;;16.30;65.30;;;;;;4982066;28;20141;-31
2022/12/05 03:03:29;;;;;;;3.40;3.20;;;16.30;65.20;;;;;;4983446;28;20539;-33
2022/12/05 03:06:12;;;;;;;3.42;3.22;;;16.30;65.20;;;;;;4982941;28;20512;-32
2022/12/05 03:08:49;;;;;;;3.42;3.13;;;16.30;65.30;;;;;;4982505;28;20096;-32
2022/12/05 03:11:14;;;;;;;3.95;3.65;;;16.30;65.40;;;;;;4980244;28;20177;-31
2022/12/05 03:13:44;;;;;;;3.38;3.17;;;16.30;65.30;;;;;;4959948;28;20334;-31
2022/12/05 03:16:17;;;;;;;3.75;3.45;;;16.30;65.50;;;;;;4983956;28;20050;-32
2022/12/05 03:18:55;;;;;;;4.10;3.75;;;16.20;65.50;;;;;;4980654;28;20150;-32
2022/12/05 03:21:30;;;;;;;3.75;3.45;;;16.30;65.60;;;;;;4983489;28;20039;-31
2022/12/05 03:24:02;;;;;;;4.40;4.00;;;16.30;65.60;;;;;;4984676;28;20061;-33
2022/12/05 03:26:50;;;;;;;3.72;3.38;;;16.30;65.60;;;;;;4982259;28;20042;-30
2022/12/05 03:29:35;;;;;;;4.07;3.78;;;16.20;65.60;;;;;;4985196;28;20042;-32
2022/12/05 03:32:13;;;;;;;4.13;3.83;;;16.30;66.50;;;;;;4983427;28;20042;-34
2022/12/05 03:35:03;;;;;;;3.70;3.40;;;16.30;65.70;;;;;;4984181;28;20483;-31
2022/12/05 03:37:49;;;;;;;3.28;3.08;;;16.20;65.60;;;;;;4982898;28;20035;-34
2022/12/05 03:40:36;;;;;;;3.70;3.40;;;16.30;65.70;;;;;;4984006;28;20046;-29
2022/12/05 03:43:12;;;;;;;3.45;3.15;;;16.20;65.70;;;;;;4984381;28;20035;-31
2022/12/05 03:45:45;;;;;;;3.83;3.53;;;16.20;65.90;;;;;;4986867;28;20044;-33
2022/12/05 03:48:22;;;;;;;3.90;3.60;;;16.20;65.90;;;;;;4983902;28;20038;-35
2022/12/05 03:50:48;;;;;;;3.45;3.25;;;16.20;65.70;;;;;;4987983;28;20116;-33
2022/12/05 03:53:23;;;;;;;3.15;2.95;;;16.20;65.80;;;;;;4986913;28;20519;-35
2022/12/05 03:56:09;;;;;;;3.63;3.33;;;16.30;65.90;;;;;;4972182;28;20054;-32
2022/12/05 03:58:42;;;;;;;3.63;3.35;;;16.30;65.80;;;;;;5018009;28;20089;-33
2022/12/05 04:01:08;;;;;;;3.63;3.35;;;16.20;65.60;;;;;;4988703;28;20073;-31
2022/12/05 04:03:44;;;;;;;3.83;3.53;;;16.20;65.70;;;;;;4988328;28;20132;-35
2022/12/05 04:06:17;;;;;;;3.78;3.47;;;16.30;65.80;;;;;;4986375;28;20058;-32
2022/12/05 04:09:16;;;;;;;3.75;3.47;;;16.30;65.70;;;;;;4980855;28;20137;-32
2022/12/05 04:11:44;;;;;;;3.38;3.10;;;16.20;65.60;;;;;;4998396;28;20093;-34
2022/12/05 04:14:12;;;;;;;3.92;3.63;;;16.20;65.60;;;;;;4985833;28;20046;-30
2022/12/05 04:17:02;;;;;;;3.90;3.60;;;16.10;65.80;;;;;;4984077;28;20035;-31
2022/12/05 04:22:19;;;;;;;4.18;3.88;;;16.20;65.50;;;;;;4985147;28;20602;-33
2022/12/05 04:27:40;;;;;;;;;;;16.10;65.70;;;;;;4987207;28;20093;-34
2022/12/05 04:30:10;;;;;;;4.25;3.90;;;16.10;65.70;;;;;;4988210;28;19952;-35
2022/12/05 04:33:00;;;;;;;4.32;3.95;;;16.10;65.70;;;;;;4984251;28;20035;-33
2022/12/05 04:35:29;;;;;;;3.95;3.40;;;16.10;66.40;;;;;;4986047;28;20562;-32
2022/12/05 04:38:00;;;;;;;3.50;3.28;;;16.10;65.70;;;;;;4984822;28;20046;-35
2022/12/05 04:40:36;;;;;;;4.20;3.90;;;16.10;65.60;;;;;;4985651;28;20043;-33
2022/12/05 04:43:02;;;;;;;4.53;4.10;;;16.10;65.70;;;;;;4988581;28;20043;-34
2022/12/05 04:45:28;;;;;;;3.95;3.65;;;16.10;65.50;;;;;;4999300;28;20049;-34
2022/12/05 04:47:59;;;;;;;4.40;4.00;;;16.10;65.60;;;;;;4983684;28;20038;-32
2022/12/05 04:50:25;;;;;;;4.90;4.40;;;16.10;65.50;;;;;;5016140;28;20088;-34
2022/12/05 04:52:52;;;;;;;4.35;4.05;;;16.10;65.70;;;;;;5015615;28;20062;-31
2022/12/05 04:55:24;;;;;;;4.25;3.85;;;16.10;65.50;;;;;;5004232;28;20030;-33
2022/12/05 04:58:06;;;;;;;3.85;3.65;;;16.10;65.70;;;;;;4985911;28;20047;-31
2022/12/05 05:00:34;;;;;;;3.72;3.42;;;16.20;65.60;;;;;;4987181;28;20077;-32
2022/12/05 05:03:05;;;;;;;4.38;4.07;;;16.10;65.40;;;;;;4984318;28;20511;-32
2022/12/05 05:05:30;;;;;;;3.92;3.63;;;16.10;65.40;;;;;;4986542;28;20070;-33
2022/12/05 05:07:56;;;;;;;4.20;3.80;;;16.00;65.70;;;;;;4987766;28;20073;-31
2022/12/05 05:10:44;;;;;;;4.70;4.25;;;16.10;65.70;;;;;;4998964;28;20042;-35
2022/12/05 05:13:10;;;;;;;4.30;3.70;;;16.00;65.60;;;;;;4992722;28;20549;-31
2022/12/05 05:15:35;;;;;;;4.47;4.07;;;16.00;65.60;;;;;;4986798;28;20054;-31
2022/12/05 05:18:01;;;;;;;4.43;4.03;;;16.00;65.80;;;;;;4989355;28;20042;-32
2022/12/05 05:20:26;;;;;;;4.20;3.80;;;16.10;65.80;;;;;;4988437;28;20042;-37
2022/12/05 05:22:56;;;;;;;4.13;3.83;;;16.00;65.60;;;;;;4984442;28;20514;-32
2022/12/05 05:25:22;;;;;;;4.05;3.65;;;16.00;65.70;;;;;;4987753;28;20026;-31
2022/12/05 05:27:49;;;;;;;3.78;3.47;;;16.00;65.70;;;;;;4987810;28;20388;-33
2022/12/05 05:30:15;;;;;;;4.15;3.85;;;16.00;65.50;;;;;;4985837;28;20046;-34
2022/12/05 05:32:40;;;;;;;4.15;3.85;;;16.10;65.70;;;;;;4987733;28;20105;-33
2022/12/05 05:35:06;;;;;;;3.92;3.55;;;16.10;65.60;;;;;;4989777;28;20444;-31
2022/12/05 05:37:31;;;;;;;3.75;3.45;;;16.00;65.50;;;;;;4986079;28;20034;-32
2022/12/05 05:39:57;;;;;;;4.22;3.92;;;16.00;65.50;;;;;;4987820;28;20058;-32
2022/12/05 05:42:23;;;;;;;3.95;3.55;;;16.10;65.50;;;;;;4988582;28;20506;-31
2022/12/05 05:44:48;;;;;;;3.70;3.40;;;16.00;65.40;;;;;;4983718;28;20133;-32
2022/12/05 05:47:14;;;;;;;3.92;3.67;;;16.00;65.60;;;;;;4987924;28;20054;-32
2022/12/05 05:49:39;;;;;;;3.75;3.45;;;16.00;65.50;;;;;;4986623;28;20045;-34
2022/12/05 05:52:05;;;;;;;4.53;4.10;;;16.00;65.60;;;;;;4983532;28;20496;-35
2022/12/05 05:54:30;;;;;;;4.07;3.70;;;16.10;65.50;;;;;;4985617;28;20062;-33
2022/12/05 05:56:56;;;;;;;4.15;3.75;;;16.10;65.40;;;;;;4986213;28;20075;-31
2022/12/05 05:59:21;;;;;;;3.65;3.35;;;16.00;65.50;;;;;;4987132;28;20046;-35
2022/12/05 06:01:47;;;;;;;3.92;3.63;;;16.00;65.90;;;;;;4987904;28;20050;-37
2022/12/05 06:04:13;;;;;;;4.32;3.90;;;16.00;65.60;;;;;;4987050;28;20108;-34
2022/12/05 06:06:39;;;;;;;3.55;3.28;;;16.10;65.80;;;;;;4966540;28;20537;-30
2022/12/05 06:09:06;;;;;;;3.90;3.60;;;16.10;65.40;;;;;;4985357;28;20546;-35
2022/12/05 06:11:31;;;;;;;3.72;3.42;;;16.10;65.50;;;;;;5007964;28;20459;-36
2022/12/05 06:13:59;;;;;;;4.40;3.95;;;16.00;65.60;;;;;;4984913;28;20046;-33
2022/12/05 06:16:25;;;;;;;4.20;3.33;;;16.00;65.50;;;;;;4986510;28;20057;-36
2022/12/05 06:18:51;;;;;;;3.35;3.15;;;16.00;65.50;;;;;;4985859;28;20565;-35
2022/12/05 06:21:17;;;;;;;3.80;3.50;;;16.00;65.70;;;;;;4984707;28;20061;-33
2022/12/05 06:23:42;;;;;;;6.07;4.30;;;16.10;65.80;;;;;;4984604;28;20034;-36
2022/12/05 06:26:18;;;;;;;3.95;3.65;;;16.10;65.60;;;;;;4947368;28;10001220;-35
2022/12/05 06:28:44;;;;;;;4.32;3.97;;;16.10;65.80;;;;;;5003656;28;20261;-33
2022/12/05 06:31:20;;;;;;;3.70;3.47;;;16.10;65.90;;;;;;4981205;28;20050;-34
2022/12/05 06:33:46;;;;;;;4.30;3.90;;;16.00;65.80;;;;;;4979241;28;20137;-31
2022/12/05 06:36:14;;;;;;;4.30;4.00;;;16.00;66.20;;;;;;4982521;28;20121;-33
2022/12/05 06:38:40;;;;;;;4.20;3.85;;;16.00;66.30;;;;;;4977284;28;20053;-33
2022/12/05 06:41:06;;;;;;;4.57;3.70;;;16.00;66.30;;;;;;4980697;28;20050;-32
2022/12/05 06:43:32;;;;;;;4.10;3.72;;;16.00;66.40;;;;;;4980543;28;20610;-33
2022/12/05 06:45:58;;;;;;;4.32;3.83;;;16.00;66.60;;;;;;4977941;28;20090;-37
2022/12/05 06:48:23;;;;;;;4.20;3.80;;;16.00;66.80;;;;;;4975244;28;20027;-32
2022/12/05 06:50:52;;;;;;;4.22;3.92;;;16.00;67.00;;;;;;4976273;28;20566;-34
2022/12/05 06:53:18;;;;;;;4.50;4.10;;;16.00;67.60;;;;;;4980606;28;20053;-32
2022/12/05 06:55:44;;;;;;;4.78;4.38;;;16.00;67.70;;;;;;4975661;28;20050;-34
2022/12/05 06:58:10;;;;;;;5.50;4.30;;;16.00;67.60;;;;;;4979698;28;20050;-33
2022/12/05 07:03:19;;;;;;;4.55;3.95;;;16.00;67.50;;;;;;4980111;28;20081;-33
2022/12/05 07:05:45;;;;;;;4.68;4.28;;;16.10;67.60;;;;;;4975952;28;20138;-32
2022/12/05 07:08:11;;;;;;;3.90;3.60;;;16.00;68.60;;;;;;4980890;28;20038;-33
2022/12/05 07:10:36;;;;;;;4.55;4.15;;;16.00;67.90;;;;;;4980808;28;20463;-32
2022/12/05 07:13:02;;;;;;;4.70;3.80;;;16.00;67.90;;;;;;4976683;28;20137;-33
2022/12/05 07:15:27;;;;;;;4.57;4.13;;;16.10;68.00;;;;;;4978915;28;20647;-32
2022/12/05 07:17:53;;;;;;;4.25;3.85;;;16.00;68.20;;;;;;4980965;28;20060;-36
2022/12/05 07:20:18;;;;;;;4.22;3.90;;;16.00;68.00;;;;;;4976479;28;20046;-32
2022/12/05 07:22:47;;;;;;;6.13;4.40;;;16.10;68.50;;;;;;4985992;28;20761;-31
2022/12/05 07:25:12;;;;;;;4.43;4.03;;;16.10;68.00;;;;;;4984285;28;20471;-34
2022/12/05 07:27:38;;;;;;;3.97;3.58;;;16.10;67.90;;;;;;4984745;28;20510;-33
2022/12/05 07:30:05;;;;;;;4.68;4.28;;;16.10;68.50;;;;;;4982458;28;20141;-35
2022/12/05 07:32:32;;;;;;;5.45;4.15;;;16.10;68.40;;;;;;4979960;28;20049;-31
2022/12/05 07:34:57;;;;;;;4.65;4.25;;;16.00;68.90;;;;;;4978823;28;20050;-35
2022/12/05 07:37:23;;;;;;;4.18;3.88;;;16.00;69.10;;;;;;4983127;28;20434;-34
2022/12/05 07:39:50;;;;;;;6.00;4.85;;;16.00;69.40;;;;;;4983729;28;20512;-33
2022/12/05 07:42:15;;;;;;;5.40;4.78;;;16.10;69.50;;;;;;4985683;28;20046;-31
2022/12/05 07:44:41;;;;;;;4.72;4.28;;;16.10;69.50;;;;;;4983903;28;20035;-34
2022/12/05 07:47:06;;;;;;;4.55;4.13;;;16.10;69.90;;;;;;4986367;28;20083;-32
2022/12/05 07:49:32;;;;;;;6.78;4.57;;;16.10;69.60;;;;;;4981937;28;20606;-34
2022/12/05 07:51:57;;;;;;;4.57;4.03;;;16.00;69.50;;;;;;4982737;28;20051;-40
2022/12/05 07:54:23;;;;;;;5.20;4.38;;;16.00;70.40;;;;;;4987889;28;20416;-33
2022/12/05 07:56:49;;;;;;;4.88;4.47;;;16.10;69.60;;;;;;4989124;28;20031;-36
2022/12/05 07:59:14;;;;;;;7.82;4.68;;;16.10;69.50;;;;;;4990104;28;20077;-35
2022/12/05 08:01:40;;;;;;;6.43;4.32;;;16.10;69.20;;;;;;4984198;28;20046;-31
2022/12/05 08:04:05;;;;;;;6.15;4.63;;;16.10;69.20;;;;;;4988045;28;20523;-31
2022/12/05 08:06:32;;;;;;;8.38;4.78;;;16.00;70.40;;;;;;4990870;28;20137;-35
2022/12/05 08:08:58;;;;;;;5.60;4.78;;;16.10;69.60;;;;;;4989884;28;20058;-38
2022/12/05 08:11:28;;;;;;;5.95;4.78;;;16.10;70.00;;;;;;4990709;28;20065;-32
2022/12/05 08:13:55;;;;;;;5.10;4.60;;;16.00;70.00;;;;;;4989423;28;20107;-32
2022/12/05 08:16:22;;;;;;;5.97;5.05;;;16.00;70.30;;;;;;4990993;28;20066;-36
2022/12/05 08:18:48;;;;;;;6.20;4.80;;;16.00;70.20;;;;;;4988300;28;20041;-30
2022/12/05 08:21:17;;;;;;;7.20;5.25;;;16.00;70.20;;;;;;4990625;28;20046;-32
2022/12/05 08:23:43;;;;;;;5.68;5.13;;;16.00;70.10;;;;;;4987601;28;20046;-35
2022/12/05 08:26:13;;;;;;;6.70;5.80;;;16.00;70.30;;;;;;4990489;28;20077;-32
2022/12/05 08:28:39;;;;;;;5.70;5.10;;;16.00;70.50;;;;;;4987145;28;20089;-33
2022/12/05 08:31:11;;;;;;;7.03;5.63;;;16.00;70.50;;;;;;4990552;28;20218;-45
2022/12/05 08:33:36;;;;;;;6.38;5.32;;;16.00;70.30;;;;;;4986184;28;20042;-51
2022/12/05 08:36:07;;;;;;;5.45;4.55;;;16.00;70.50;;;;;;4990354;28;20626;-39
2022/12/05 08:38:32;;;;;;;5.13;4.63;;;16.00;70.50;;;;;;4989076;28;20161;-46
2022/12/05 08:41:02;;;;;;;6.22;4.80;;;16.00;70.20;;;;;;4989441;28;20141;-39
2022/12/05 08:43:28;;;;;;;5.65;5.15;;;16.00;70.30;;;;;;4990353;28;20042;-41
2022/12/05 08:45:54;;;;;;;5.50;4.53;;;16.00;70.20;;;;;;4989820;28;20423;-43
2022/12/05 08:48:20;;;;;;;5.30;4.80;;;16.00;70.10;;;;;;4989974;28;20052;-58
2022/12/05 08:50:46;;;;;;;5.85;4.68;;;15.90;70.20;;;;;;4988453;28;20042;-43
2022/12/05 08:53:11;;;;;;;6.75;4.60;;;15.90;70.00;;;;;;4989680;28;20047;-34
2022/12/05 08:55:37;;;;;;;5.13;4.45;;;16.00;70.00;;;;;;4989315;28;20039;-45
2022/12/05 08:58:03;;;;;;;5.18;4.68;;;16.00;70.10;;;;;;4990335;28;20047;-50
2022/12/05 09:00:28;;;;;;;5.60;4.47;;;16.00;70.10;;;;;;4990215;28;20066;-53
2022/12/05 09:02:54;;;;;;;4.63;4.22;;;16.00;69.80;;;;;;4989192;28;20058;-40
2022/12/05 09:05:21;;;;;;;6.80;4.53;;;15.90;70.10;;;;;;4984858;28;20503;-37
2022/12/05 09:07:47;;;;;;;5.85;5.10;;;15.90;69.70;;;;;;4986169;28;20178;-35
2022/12/05 09:10:12;;;;;;;4.93;4.53;;;15.90;69.70;;;;;;4989664;28;20125;-43
2022/12/05 09:12:38;;;;;;;5.63;5.13;;;16.00;69.50;;;;;;4988502;28;20050;-35
2022/12/05 09:15:05;;;;;;;4.80;4.40;;;16.00;69.90;;;;;;4990401;28;20150;-36
2022/12/05 09:17:31;;;;;;;4.65;4.25;;;16.00;69.70;;;;;;4988559;28;20042;-44
2022/12/05 09:19:56;;;;;;;4.57;4.22;;;15.90;69.20;;;;;;4989109;28;20045;-51
2022/12/05 09:22:22;;;;;;;4.45;4.15;;;16.00;69.40;;;;;;4988615;28;20062;-42
2022/12/05 09:24:48;;;;;;;6.45;4.72;;;16.00;69.10;;;;;;4989150;28;20440;-45
2022/12/05 09:27:13;;;;;;;4.72;4.32;;;16.00;69.30;;;;;;4988671;28;20034;-46
2022/12/05 09:29:39;;;;;;;4.70;4.30;;;16.00;70.10;;;;;;4988007;28;20113;-23
2022/12/05 09:32:04;;;;;;;4.57;4.18;;;16.00;69.30;;;;;;4989392;28;20046;-39
2022/12/05 09:34:30;;;;;;;5.50;4.38;;;16.00;69.40;;;;;;4989272;28;20046;-33
2022/12/05 09:36:56;;;;;;;4.30;4.00;;;16.00;69.20;;;;;;4988624;28;20124;-41
2022/12/05 09:39:22;;;;;;;4.38;4.07;;;15.90;69.20;;;;;;4988310;28;20491;-40
2022/12/05 09:42:07;;;;;;;4.45;4.07;;;15.90;69.50;;;;;;4987077;28;20104;-49
2022/12/05 09:44:54;;;;;;;4.70;4.30;;;16.00;69.00;;;;;;4984719;28;20038;-55
2022/12/05 09:47:33;;;;;;;4.60;4.20;;;16.00;69.00;;;;;;4988187;28;20053;-40
2022/12/05 09:50:22;;;;;;;4.93;4.43;;;16.00;68.80;;;;;;4986697;28;20034;-38
2022/12/05 09:52:53;;;;;;;4.75;4.30;;;15.90;68.80;;;;;;4984999;28;20050;-48
2022/12/05 09:55:19;;;;;;;4.53;4.18;;;15.90;68.40;;;;;;4987716;28;20034;-45
2022/12/05 09:57:56;;;;;;;4.93;3.97;;;15.90;68.60;;;;;;4987131;28;20038;-51
2022/12/05 10:00:22;;;;;;;4.80;4.00;;;16.00;68.70;;;;;;4987533;28;20061;-50
2022/12/05 10:02:50;;;;;;;4.50;4.10;;;15.90;68.30;;;;;;4988264;28;20082;-51
2022/12/05 10:05:26;;;;;;;3.88;3.58;;;15.90;68.60;;;;;;4988607;28;20053;-40
2022/12/05 10:08:13;;;;;;;4.35;3.95;;;15.90;68.70;;;;;;4984065;28;20047;-41
2022/12/05 10:10:47;;;;;;;4.60;4.20;;;16.00;68.60;;;;;;4989242;28;20038;-48
2022/12/05 10:13:26;;;;;;;4.45;4.05;;;15.90;68.60;;;;;;4983135;28;20054;-43
2022/12/05 10:15:53;;;;;;;3.95;3.70;;;15.90;68.50;;;;;;4986786;28;20129;-50
2022/12/05 10:18:40;;;;;;;5.50;4.18;;;15.90;68.40;;;;;;4983710;28;20047;-36
2022/12/05 10:21:08;;;;;;;4.40;4.10;;;15.90;68.10;;;;;;4987176;28;20046;-33
2022/12/05 10:23:35;;;;;;;4.82;4.38;;;15.90;68.60;;;;;;4986222;28;20085;-36
2022/12/05 10:26:03;;;;;;;4.53;4.13;;;15.90;68.40;;;;;;4986456;28;20066;-35
2022/12/05 10:28:51;;;;;;;4.70;4.30;;;15.90;68.40;;;;;;4986663;28;20042;-31
2022/12/05 10:31:19;;;;;;;4.70;4.30;;;15.90;68.40;;;;;;4985862;28;20050;-31
2022/12/05 10:33:48;;;;;;;4.50;4.20;;;15.90;68.20;;;;;;4986466;28;20073;-35
2022/12/05 10:36:14;;;;;;;3.78;3.55;;;15.90;67.90;;;;;;4984721;28;20053;-32
2022/12/05 10:38:40;;;;;;;4.97;4.57;;;15.90;68.10;;;;;;4987981;28;20050;-34
2022/12/05 10:41:10;;;;;;;5.00;4.50;;;15.90;68.40;;;;;;4986431;28;20052;-31
2022/12/05 10:43:39;;;;;;;5.40;4.78;;;15.90;68.10;;;;;;4986259;28;20045;-35
2022/12/05 10:46:05;;;;;;;4.38;4.07;;;15.90;68.80;;;;;;4985601;28;20054;-35
2022/12/05 10:48:36;;;;;;;4.28;3.97;;;15.90;68.10;;;;;;4987065;28;20035;-33
2022/12/05 10:51:02;;;;;;;4.35;3.97;;;15.90;67.90;;;;;;4984936;28;20141;-33
2022/12/05 10:53:41;;;;;;;4.63;4.30;;;15.90;68.10;;;;;;4988094;28;20133;-32
2022/12/05 10:56:45;;;;;;;4.25;3.95;;;15.80;67.80;;;;;;4989240;28;20054;-35
2022/12/05 10:59:12;;;;;;;4.55;4.15;;;15.90;67.90;;;;;;4992999;28;20586;-35
2022/12/05 11:01:43;;;;;;;4.30;4.00;;;15.90;67.90;;;;;;4992291;28;20046;-32
2022/12/05 11:04:20;;;;;;;4.50;4.10;;;15.80;68.00;;;;;;4983543;28;20073;-32
2022/12/05 11:06:54;;;;;;;4.63;4.30;;;15.90;67.90;;;;;;4992087;28;20038;-36
2022/12/05 11:09:31;;;;;;;4.13;3.83;;;15.90;68.70;;;;;;4992102;28;20038;-37
2022/12/05 11:12:19;;;;;;;4.28;3.97;;;15.80;67.70;;;;;;4990520;28;20089;-33
2022/12/05 11:14:57;;;;;;;3.65;3.35;;;15.80;67.70;;;;;;4992351;28;20120;-33
2022/12/05 11:17:31;;;;;;;4.97;4.55;;;15.80;67.80;;;;;;4994534;28;20034;-32
2022/12/05 11:19:57;;;;;;;4.90;4.47;;;15.80;67.70;;;;;;4992874;28;20053;-33
2022/12/05 11:22:35;;;;;;;5.15;4.65;;;15.80;67.60;;;;;;4992974;28;20022;-34
2022/12/05 11:25:01;;;;;;;4.18;3.88;;;15.80;67.70;;;;;;4993520;28;20046;-33
2022/12/05 11:27:27;;;;;;;4.63;4.32;;;15.80;67.80;;;;;;4993269;28;20403;-38
2022/12/05 11:30:11;;;;;;;4.93;4.47;;;15.80;67.60;;;;;;4993348;28;20089;-36
2022/12/05 11:32:37;;;;;;;4.80;4.40;;;15.80;67.40;;;;;;4992429;28;20038;-32
2022/12/05 11:35:11;;;;;;;4.10;3.80;;;15.80;67.50;;;;;;4991192;28;20055;-30
2022/12/05 11:37:42;;;;;;;4.88;4.47;;;15.90;67.60;;;;;;4993325;28;20030;-34
2022/12/05 11:40:24;;;;;;;4.45;4.15;;;15.80;67.70;;;;;;4990532;28;20147;-34
2022/12/05 11:43:22;;;;;;;5.30;4.80;;;15.90;67.60;;;;;;4985383;28;20141;-35
2022/12/05 11:46:07;;;;;;;4.25;3.95;;;15.90;67.80;;;;;;4993776;28;20101;-33
2022/12/05 11:48:44;;;;;;;4.50;4.10;;;15.80;67.80;;;;;;4979282;28;20570;-36
2022/12/05 11:51:10;;;;;;;4.18;3.88;;;15.80;67.90;;;;;;4981283;28;20066;-32
2022/12/05 11:53:36;;;;;;;4.68;4.30;;;15.90;68.00;;;;;;4989622;28;20046;-36
2022/12/05 11:56:28;;;;;;;4.40;4.00;;;15.90;67.90;;;;;;4982923;28;20042;-33
2022/12/05 11:59:00;;;;;;;5.03;4.55;;;15.90;68.00;;;;;;4987470;28;20046;-31
2022/12/05 12:01:41;;;;;;;5.13;4.70;;;15.80;68.10;;;;;;4987532;28;20061;-32
2022/12/05 12:04:28;;;;;;;4.78;4.38;;;15.90;68.90;;;;;;4987768;28;20046;-32
2022/12/05 12:07:14;;;;;;;5.20;4.70;;;15.90;68.10;;;;;;4991438;28;20038;-34
2022/12/05 12:10:05;;;;;;;4.10;3.80;;;15.90;68.00;;;;;;4991796;28;20101;-31
2022/12/05 12:12:37;;;;;;;4.65;4.25;;;15.90;68.10;;;;;;4977782;28;20050;-43
2022/12/05 12:15:31;;;;;;;5.10;4.70;;;15.90;68.00;;;;;;4989137;28;20044;-56
2022/12/05 12:18:23;;;;;;;4.15;3.85;;;15.90;68.10;;;;;;4988914;28;20042;-44
2022/12/05 12:21:19;;;;;;;4.43;4.07;;;15.90;68.00;;;;;;4989104;28;20503;-36
2022/12/05 12:23:59;;;;;;;4.43;4.13;;;16.00;68.00;;;;;;4989681;28;20133;-32
2022/12/05 12:27:02;;;;;;;4.53;4.18;;;15.90;68.20;;;;;;4987235;28;20531;-32
2022/12/05 12:29:44;;;;;;;4.18;3.78;;;16.00;67.90;;;;;;4982177;28;20050;-34
2022/12/05 12:32:28;;;;;;;4.25;3.95;;;15.90;67.90;;;;;;4984670;28;20385;-33
2022/12/05 12:35:03;;;;;;;3.92;3.63;;;16.00;67.80;;;;;;4989452;28;20038;-36
2022/12/05 12:37:50;;;;;;;4.28;3.85;;;16.00;67.70;;;;;;4988451;28;20046;-34
2022/12/05 12:40:37;;;;;;;3.95;3.70;;;16.00;67.60;;;;;;4987162;28;20050;-35
2022/12/05 12:43:06;;;;;;;3.90;3.70;;;16.00;67.80;;;;;;4985296;28;20058;-33
2022/12/05 12:46:09;;;;;;;4.60;4.20;;;16.00;67.90;;;;;;4988746;28;20046;-37
2022/12/05 12:48:58;;;;;;;4.50;4.20;;;16.00;67.70;;;;;;4985656;28;20093;-32
2022/12/05 12:51:24;;;;;;;4.57;4.18;;;16.10;67.70;;;;;;4987379;28;20046;-17
2022/12/05 12:54:02;;;;;;;4.95;4.57;;;16.10;67.50;;;;;;4987691;28;20042;-16
2022/12/05 12:56:51;;;;;;;4.22;3.92;;;16.10;67.40;;;;;;4988311;28;20422;-17
2022/12/05 12:59:38;;;;;;;4.00;3.70;;;16.10;67.40;;;;;;4946300;28;20114;-16
2022/12/05 13:02:16;;;;;;;5.13;3.95;;;16.20;67.10;;;;;;4944175;28;20039;-17
2022/12/05 13:04:56;;;;;;;4.25;3.95;;;16.20;67.20;;;;;;4945190;28;20039;-16
2022/12/05 13:07:32;;;;;;;4.80;4.40;;;16.10;67.40;;;;;;4944784;29;20047;-17
2022/12/05 13:10:20;;;;;;;4.43;3.95;;;16.10;67.60;;;;;;4931631;28;20083;-17
2022/12/05 13:12:45;;;;;;;4.60;4.20;;;16.10;67.60;;;;;;4934562;28;20058;-17
2022/12/05 13:15:16;;;;;;;4.80;4.40;;;16.10;67.60;;;;;;4931568;28;20052;-16
2022/12/05 13:17:42;;;;;;;5.53;4.40;;;16.10;67.60;;;;;;4915485;29;20058;-16